createdAt,value
2018-04-24T00:00:45.035Z,1004
2018-04-24T00:01:45.053Z,1004.01
2018-04-24T00:02:45.082Z,1004
2018-04-24T00:03:45.136Z,1004.03
2018-04-24T00:04:45.115Z,1004.02
2018-04-24T00:05:45.142Z,1003.99
2018-04-24T00:06:45.158Z,1004.02
2018-04-24T00:07:45.176Z,1004.06
2018-04-24T00:08:45.197Z,1004.01
2018-04-24T00:09:45.272Z,1004.05
2018-04-24T00:10:45.244Z,1004.05
2018-04-24T00:11:45.265Z,1004.05
2018-04-24T00:12:45.280Z,1004.07
2018-04-24T00:13:45.303Z,1004.05
2018-04-24T00:14:45.319Z,1004.09
2018-04-24T00:15:45.339Z,1004.07
2018-04-24T00:16:45.365Z,1004.05
2018-04-24T00:17:45.381Z,1004.04
2018-04-24T00:18:45.400Z,1004.04
2018-04-24T00:19:45.422Z,1004.07
2018-04-24T00:20:45.446Z,1004.08
2018-04-24T00:21:45.461Z,1004.06
2018-04-24T00:22:45.484Z,1004.1
2018-04-24T00:23:45.508Z,1004.08
2018-04-24T00:24:45.530Z,1004.11
2018-04-24T00:25:45.549Z,1004.1
2018-04-24T00:26:45.569Z,1004.08
2018-04-24T00:27:45.590Z,1004.13
2018-04-24T00:28:45.604Z,1004.08
2018-04-24T00:29:45.625Z,1004.12
2018-04-24T00:30:45.650Z,1004.1
2018-04-24T00:31:45.665Z,1004.1
2018-04-24T00:32:45.686Z,1004.09
2018-04-24T00:33:45.713Z,1004.09
2018-04-24T00:34:45.732Z,1004.07
2018-04-24T00:35:45.747Z,1004.07
2018-04-24T00:36:45.774Z,1004.06
2018-04-24T00:37:45.793Z,1004.07
2018-04-24T00:38:45.812Z,1004
2018-04-24T00:39:45.832Z,1004.04
2018-04-24T00:40:45.849Z,1004.02
2018-04-24T00:41:45.867Z,1004.04
2018-04-24T00:42:45.896Z,1004.01
2018-04-24T00:43:45.909Z,1004.07
2018-04-24T00:44:45.929Z,1004.05
2018-04-24T00:45:45.960Z,1004.12
2018-04-24T00:46:45.969Z,1004.12
2018-04-24T00:47:45.993Z,1004.11
2018-04-24T00:48:46.014Z,1004.08
2018-04-24T00:49:46.034Z,1004.08
2018-04-24T00:50:46.053Z,1004.11
2018-04-24T00:51:46.076Z,1004.1
2018-04-24T00:52:46.103Z,1004.09
2018-04-24T00:53:46.108Z,1004.1
2018-04-24T00:54:46.129Z,1004.15
2018-04-24T00:55:46.150Z,1004.15
2018-04-24T00:56:46.169Z,1004.12
2018-04-24T00:57:46.189Z,1004.17
2018-04-24T00:58:46.220Z,1004.21
2018-04-24T00:59:46.235Z,1004.22
2018-04-24T01:00:46.249Z,1004.22
2018-04-24T01:01:46.269Z,1004.25
2018-04-24T01:02:46.294Z,1004.26
2018-04-24T01:03:46.317Z,1004.24
2018-04-24T01:04:46.329Z,1004.23
2018-04-24T01:05:46.354Z,1004.25
2018-04-24T01:06:46.447Z,1004.24
2018-04-24T01:07:46.395Z,1004.25
2018-04-24T01:08:46.409Z,1004.25
2018-04-24T01:09:46.433Z,1004.27
2018-04-24T01:10:46.448Z,1004.27
2018-04-24T01:11:46.469Z,1004.28
2018-04-24T01:12:46.490Z,1004.29
2018-04-24T01:13:46.508Z,1004.3
2018-04-24T01:14:46.534Z,1004.33
2018-04-24T01:15:46.556Z,1004.33
2018-04-24T01:16:46.568Z,1004.27
2018-04-24T01:17:46.643Z,1004.31
2018-04-24T01:18:46.614Z,1004.35
2018-04-24T01:19:46.633Z,1004.34
2018-04-24T01:20:46.648Z,1004.39
2018-04-24T01:21:46.669Z,1004.37
2018-04-24T01:22:46.693Z,1004.35
2018-04-24T01:23:46.713Z,1004.38
2018-04-24T01:24:46.728Z,1004.36
2018-04-24T01:25:46.749Z,1004.37
2018-04-24T01:26:46.774Z,1004.35
2018-04-24T01:27:46.843Z,1004.38
2018-04-24T01:28:46.809Z,1004.37
2018-04-24T01:29:46.826Z,1004.35
2018-04-24T01:30:46.853Z,1004.34
2018-04-24T01:31:46.875Z,1004.33
2018-04-24T01:32:46.894Z,1004.33
2018-04-24T01:33:46.907Z,1004.35
2018-04-24T01:34:46.930Z,1004.34
2018-04-24T01:35:46.946Z,1004.35
2018-04-24T01:36:46.973Z,1004.34
2018-04-24T01:37:46.986Z,1004.35
2018-04-24T01:38:47.005Z,1004.34
2018-04-24T01:39:47.032Z,1004.35
2018-04-24T01:40:47.045Z,1004.33
2018-04-24T01:41:47.072Z,1004.31
2018-04-24T01:42:47.090Z,1004.29
2018-04-24T01:43:47.109Z,1004.33
2018-04-24T01:44:47.124Z,1004.34
2018-04-24T01:45:47.143Z,1004.33
2018-04-24T01:46:47.168Z,1004.36
2018-04-24T01:47:47.244Z,1004.36
2018-04-24T01:48:47.203Z,1004.36
2018-04-24T01:49:47.227Z,1004.35
2018-04-24T01:50:47.240Z,1004.35
2018-04-24T01:51:47.264Z,1004.31
2018-04-24T01:52:47.281Z,1004.31
2018-04-24T01:53:47.303Z,1004.35
2018-04-24T01:54:47.325Z,1004.36
2018-04-24T01:55:47.341Z,1004.37
2018-04-24T01:56:47.358Z,1004.31
2018-04-24T01:57:47.433Z,1004.33
2018-04-24T01:58:47.398Z,1004.34
2018-04-24T01:59:47.423Z,1004.35
2018-04-24T02:00:47.436Z,1004.37
2018-04-24T02:01:47.464Z,1004.35
2018-04-24T02:02:47.481Z,1004.35
2018-04-24T02:03:47.501Z,1004.38
2018-04-24T02:04:47.518Z,1004.4
2018-04-24T02:05:47.538Z,1004.41
2018-04-24T02:06:47.553Z,1004.39
2018-04-24T02:07:47.574Z,1004.4
2018-04-24T02:08:47.597Z,1004.38
2018-04-24T02:09:47.611Z,1004.39
2018-04-24T02:10:47.642Z,1004.35
2018-04-24T02:11:47.650Z,1004.32
2018-04-24T02:12:47.669Z,1004.33
2018-04-24T02:13:47.693Z,1004.34
2018-04-24T02:14:47.713Z,1004.34
2018-04-24T02:15:47.727Z,1004.37
2018-04-24T02:16:47.748Z,1004.34
2018-04-24T02:17:47.867Z,1004.34
2018-04-24T02:18:47.785Z,1004.34
2018-04-24T02:19:47.811Z,1004.34
2018-04-24T02:20:47.830Z,1004.34
2018-04-24T02:21:47.845Z,1004.3
2018-04-24T02:22:47.862Z,1004.3
2018-04-24T02:23:47.883Z,1004.3
2018-04-24T02:24:47.901Z,1004.31
2018-04-24T02:25:47.922Z,1004.33
2018-04-24T02:26:47.944Z,1004.3
2018-04-24T02:27:48.009Z,1004.36
2018-04-24T02:28:47.986Z,1004.32
2018-04-24T02:29:48.008Z,1004.35
2018-04-24T02:30:48.022Z,1004.35
2018-04-24T02:31:48.037Z,1004.34
2018-04-24T02:32:48.108Z,1004.35
2018-04-24T02:33:48.078Z,1004.32
2018-04-24T02:34:48.098Z,1004.29
2018-04-24T02:35:48.114Z,1004.36
2018-04-24T02:36:48.152Z,1004.31
2018-04-24T02:37:48.161Z,1004.34
2018-04-24T02:38:48.178Z,1004.36
2018-04-24T02:39:48.197Z,1004.33
2018-04-24T02:40:48.222Z,1004.4
2018-04-24T02:41:48.236Z,1004.33
2018-04-24T02:42:48.254Z,1004.35
2018-04-24T02:43:48.276Z,1004.35
2018-04-24T02:44:48.293Z,1004.33
2018-04-24T02:45:48.319Z,1004.35
2018-04-24T02:46:48.351Z,1004.39
2018-04-24T02:47:48.350Z,1004.31
2018-04-24T02:48:48.370Z,1004.27
2018-04-24T02:49:48.388Z,1004.23
2018-04-24T02:50:48.402Z,1004.23
2018-04-24T02:51:48.422Z,1004.21
2018-04-24T02:52:48.496Z,1004.24
2018-04-24T02:53:48.464Z,1004.23
2018-04-24T02:54:48.493Z,1004.2
2018-04-24T02:55:48.498Z,1004.19
2018-04-24T02:56:48.517Z,1004.16
2018-04-24T02:57:48.593Z,1004.17
2018-04-24T02:58:48.561Z,1004.2
2018-04-24T02:59:48.660Z,1004.23
2018-04-24T03:00:48.596Z,1004.19
2018-04-24T03:01:48.616Z,1004.17
2018-04-24T03:02:48.685Z,1004.19
2018-04-24T03:03:48.656Z,1004.23
2018-04-24T03:04:48.678Z,1004.24
2018-04-24T03:05:48.694Z,1004.18
2018-04-24T03:06:48.708Z,1004.23
2018-04-24T03:07:48.726Z,1004.23
2018-04-24T03:08:48.747Z,1004.24
2018-04-24T03:09:48.771Z,1004.23
2018-04-24T03:10:48.786Z,1004.18
2018-04-24T03:11:48.825Z,1004.15
2018-04-24T03:12:48.828Z,1004.07
2018-04-24T03:13:48.858Z,1004.08
2018-04-24T03:14:48.870Z,1004.03
2018-04-24T03:15:48.880Z,1004.01
2018-04-24T03:16:48.904Z,1004.06
2018-04-24T03:17:48.971Z,1004.06
2018-04-24T03:18:48.949Z,1004.08
2018-04-24T03:19:48.957Z,1004.11
2018-04-24T03:20:48.974Z,1004.12
2018-04-24T03:21:48.998Z,1004.12
2018-04-24T03:22:49.018Z,1004.13
2018-04-24T03:23:49.032Z,1004.1
2018-04-24T03:24:49.050Z,1004.08
2018-04-24T03:25:49.069Z,1004.04
2018-04-24T03:26:49.094Z,1004.05
2018-04-24T03:27:49.164Z,1004.02
2018-04-24T03:28:49.131Z,1003.99
2018-04-24T03:29:49.146Z,1003.93
2018-04-24T03:30:49.173Z,1003.98
2018-04-24T03:31:49.184Z,1003.98
2018-04-24T03:32:49.204Z,1003.92
2018-04-24T03:33:49.222Z,1003.94
2018-04-24T03:34:49.242Z,1003.91
2018-04-24T03:35:49.264Z,1003.93
2018-04-24T03:36:49.287Z,1003.88
2018-04-24T03:37:49.298Z,1003.88
2018-04-24T03:38:49.318Z,1003.87
2018-04-24T03:39:49.339Z,1003.84
2018-04-24T03:40:49.360Z,1003.86
2018-04-24T03:41:49.372Z,1003.89
2018-04-24T03:42:49.447Z,1003.83
2018-04-24T03:43:49.415Z,1003.85
2018-04-24T03:44:49.431Z,1003.84
2018-04-24T03:45:49.459Z,1003.86
2018-04-24T03:46:49.475Z,1003.81
2018-04-24T03:47:49.491Z,1003.8
2018-04-24T03:48:49.506Z,1003.79
2018-04-24T03:49:49.525Z,1003.77
2018-04-24T03:50:49.541Z,1003.79
2018-04-24T03:51:49.566Z,1003.72
2018-04-24T03:52:49.586Z,1003.71
2018-04-24T03:53:49.599Z,1003.7
2018-04-24T03:54:49.623Z,1003.67
2018-04-24T03:55:49.637Z,1003.65
2018-04-24T03:56:49.656Z,1003.62
2018-04-24T03:57:49.825Z,1003.64
2018-04-24T03:58:49.698Z,1003.62
2018-04-24T03:59:49.711Z,1003.61
2018-04-24T04:00:49.736Z,1003.61
2018-04-24T04:01:49.754Z,1003.61
2018-04-24T04:02:49.920Z,1003.59
2018-04-24T04:03:49.791Z,1003.62
2018-04-24T04:04:49.805Z,1003.61
2018-04-24T04:05:49.824Z,1003.64
2018-04-24T04:06:49.842Z,1003.66
2018-04-24T04:07:49.924Z,1003.66
2018-04-24T04:08:49.883Z,1003.7
2018-04-24T04:09:49.954Z,1003.74
2018-04-24T04:10:49.917Z,1003.74
2018-04-24T04:11:49.941Z,1003.72
2018-04-24T04:12:49.960Z,1003.72
2018-04-24T04:13:49.980Z,1003.67
2018-04-24T04:14:49.993Z,1003.7
2018-04-24T04:15:50.085Z,1003.7
2018-04-24T04:16:50.030Z,1003.65
2018-04-24T04:17:50.049Z,1003.67
2018-04-24T04:18:50.068Z,1003.63
2018-04-24T04:19:50.090Z,1003.69
2018-04-24T04:20:50.110Z,1003.73
2018-04-24T04:21:50.124Z,1003.66
2018-04-24T04:22:50.292Z,1003.66
2018-04-24T04:23:50.159Z,1003.68
2018-04-24T04:24:50.181Z,1003.64
2018-04-24T04:25:50.201Z,1003.68
2018-04-24T04:26:50.217Z,1003.65
2018-04-24T04:27:50.240Z,1003.66
2018-04-24T04:28:50.258Z,1003.69
2018-04-24T04:29:50.278Z,1003.69
2018-04-24T04:30:50.296Z,1003.69
2018-04-24T04:31:50.308Z,1003.71
2018-04-24T04:32:50.388Z,1003.73
2018-04-24T04:33:50.347Z,1003.76
2018-04-24T04:34:50.371Z,1003.72
2018-04-24T04:35:50.389Z,1003.72
2018-04-24T04:36:50.404Z,1003.77
2018-04-24T04:37:50.421Z,1003.69
2018-04-24T04:38:50.445Z,1003.72
2018-04-24T04:39:50.459Z,1003.74
2018-04-24T04:40:50.478Z,1003.73
2018-04-24T04:41:50.501Z,1003.8
2018-04-24T04:42:50.517Z,1003.78
2018-04-24T04:43:50.533Z,1003.76
2018-04-24T04:44:50.560Z,1003.76
2018-04-24T04:45:50.569Z,1003.78
2018-04-24T04:46:50.595Z,1003.75
2018-04-24T04:47:50.659Z,1003.74
2018-04-24T04:48:50.626Z,1003.71
2018-04-24T04:49:50.650Z,1003.71
2018-04-24T04:50:50.669Z,1003.7
2018-04-24T04:51:50.688Z,1003.71
2018-04-24T04:52:50.700Z,1003.72
2018-04-24T04:53:50.724Z,1003.73
2018-04-24T04:54:50.737Z,1003.73
2018-04-24T04:55:50.757Z,1003.7
2018-04-24T04:56:50.783Z,1003.7
2018-04-24T04:57:50.804Z,1003.66
2018-04-24T04:58:50.810Z,1003.66
2018-04-24T04:59:50.829Z,1003.64
2018-04-24T05:00:50.853Z,1003.58
2018-04-24T05:01:50.866Z,1003.56
2018-04-24T05:02:50.891Z,1003.51
2018-04-24T05:03:50.903Z,1003.51
2018-04-24T05:04:50.928Z,1003.53
2018-04-24T05:05:50.940Z,1003.5
2018-04-24T05:06:50.966Z,1003.48
2018-04-24T05:07:50.982Z,1003.49
2018-04-24T05:08:50.999Z,1003.5
2018-04-24T05:09:51.014Z,1003.55
2018-04-24T05:10:51.032Z,1003.59
2018-04-24T05:11:51.051Z,1003.62
2018-04-24T05:12:51.070Z,1003.62
2018-04-24T05:13:51.094Z,1003.59
2018-04-24T05:14:51.110Z,1003.54
2018-04-24T05:15:51.128Z,1003.53
2018-04-24T05:16:51.199Z,1003.56
2018-04-24T05:17:51.169Z,1003.55
2018-04-24T05:18:51.181Z,1003.59
2018-04-24T05:19:51.204Z,1003.63
2018-04-24T05:20:51.218Z,1003.63
2018-04-24T05:21:51.241Z,1003.64
2018-04-24T05:22:51.259Z,1003.64
2018-04-24T05:23:51.278Z,1003.62
2018-04-24T05:24:51.292Z,1003.62
2018-04-24T05:25:51.316Z,1003.61
2018-04-24T05:26:51.329Z,1003.64
2018-04-24T05:27:51.366Z,1003.6
2018-04-24T05:28:51.365Z,1003.6
2018-04-24T05:29:51.390Z,1003.59
2018-04-24T05:30:51.403Z,1003.59
2018-04-24T05:31:51.427Z,1003.57
2018-04-24T05:32:51.441Z,1003.51
2018-04-24T05:33:51.459Z,1003.49
2018-04-24T05:34:51.486Z,1003.51
2018-04-24T05:35:51.541Z,1003.51
2018-04-24T05:36:51.515Z,1003.51
2018-04-24T05:37:51.533Z,1003.57
2018-04-24T05:38:51.553Z,1003.57
2018-04-24T05:39:51.588Z,1003.57
2018-04-24T05:40:51.593Z,1003.55
2018-04-24T05:41:51.608Z,1003.54
2018-04-24T05:42:51.628Z,1003.56
2018-04-24T05:43:51.652Z,1003.53
2018-04-24T05:44:51.669Z,1003.49
2018-04-24T05:45:51.689Z,1003.47
2018-04-24T05:46:51.707Z,1003.46
2018-04-24T05:47:51.727Z,1003.41
2018-04-24T05:48:51.744Z,1003.41
2018-04-24T05:49:51.759Z,1003.42
2018-04-24T05:50:51.781Z,1003.4
2018-04-24T05:51:51.799Z,1003.36
2018-04-24T05:52:51.823Z,1003.27
2018-04-24T05:53:51.833Z,1003.33
2018-04-24T05:54:51.857Z,1003.29
2018-04-24T05:55:51.869Z,1003.35
2018-04-24T05:56:51.895Z,1003.41
2018-04-24T05:57:51.911Z,1003.43
2018-04-24T05:58:51.926Z,1003.4
2018-04-24T05:59:51.946Z,1003.4
2018-04-24T06:00:51.964Z,1003.42
2018-04-24T06:01:51.985Z,1003.47
2018-04-24T06:02:52.005Z,1003.51
2018-04-24T06:03:52.022Z,1003.54
2018-04-24T06:04:52.045Z,1003.55
2018-04-24T06:05:52.065Z,1003.61
2018-04-24T06:06:52.083Z,1003.62
2018-04-24T06:07:52.097Z,1003.64
2018-04-24T06:08:52.125Z,1003.64
2018-04-24T06:09:52.140Z,1003.66
2018-04-24T06:10:52.158Z,1003.68
2018-04-24T06:11:52.173Z,1003.7
2018-04-24T06:12:52.194Z,1003.77
2018-04-24T06:13:52.210Z,1003.74
2018-04-24T06:14:52.240Z,1003.71
2018-04-24T06:15:52.254Z,1003.81
2018-04-24T06:16:52.268Z,1003.78
2018-04-24T06:17:52.289Z,1003.79
2018-04-24T06:18:52.313Z,1003.76
2018-04-24T06:19:52.326Z,1003.74
2018-04-24T06:20:52.351Z,1003.82
2018-04-24T06:21:52.368Z,1003.84
2018-04-24T06:22:52.391Z,1003.86
2018-04-24T06:23:52.406Z,1003.82
2018-04-24T06:24:52.421Z,1003.8
2018-04-24T06:25:52.442Z,1003.81
2018-04-24T06:26:52.460Z,1003.82
2018-04-24T06:27:52.484Z,1003.79
2018-04-24T06:28:52.501Z,1003.77
2018-04-24T06:29:52.520Z,1003.79
2018-04-24T06:30:52.542Z,1003.79
2018-04-24T06:31:52.554Z,1003.75
2018-04-24T06:32:52.578Z,1003.76
2018-04-24T06:33:52.600Z,1003.79
2018-04-24T06:34:52.615Z,1003.82
2018-04-24T06:35:52.637Z,1003.84
2018-04-24T06:36:52.650Z,1003.84
2018-04-24T06:37:52.675Z,1003.82
2018-04-24T06:38:52.686Z,1003.79
2018-04-24T06:39:52.707Z,1003.85
2018-04-24T06:40:52.733Z,1003.8
2018-04-24T06:41:52.745Z,1003.86
2018-04-24T06:42:52.770Z,1003.85
2018-04-24T06:43:52.788Z,1003.81
2018-04-24T06:44:52.802Z,1003.82
2018-04-24T06:45:52.825Z,1003.78
2018-04-24T06:46:52.845Z,1003.84
2018-04-24T06:47:53.034Z,1003.81
2018-04-24T06:48:52.878Z,1003.84
2018-04-24T06:49:52.901Z,1003.78
2018-04-24T06:50:52.920Z,1003.79
2018-04-24T06:51:52.937Z,1003.77
2018-04-24T06:52:52.958Z,1003.81
2018-04-24T06:53:52.976Z,1003.83
2018-04-24T06:54:52.993Z,1003.84
2018-04-24T06:55:53.013Z,1003.88
2018-04-24T06:56:53.036Z,1003.9
2018-04-24T06:57:53.056Z,1003.87
2018-04-24T06:58:53.074Z,1003.87
2018-04-24T06:59:53.093Z,1003.89
2018-04-24T07:00:53.147Z,1003.87
2018-04-24T07:01:53.132Z,1003.89
2018-04-24T07:02:53.151Z,1003.87
2018-04-24T07:03:53.165Z,1003.92
2018-04-24T07:04:53.185Z,1003.88
2018-04-24T07:05:53.208Z,1003.93
2018-04-24T07:06:53.224Z,1003.9
2018-04-24T07:07:53.247Z,1003.83
2018-04-24T07:08:53.262Z,1003.83
2018-04-24T07:09:53.284Z,1003.85
2018-04-24T07:10:53.305Z,1003.88
2018-04-24T07:11:53.325Z,1003.84
2018-04-24T07:12:53.388Z,1003.84
2018-04-24T07:13:53.358Z,1003.84
2018-04-24T07:14:53.382Z,1003.84
2018-04-24T07:15:53.401Z,1003.82
2018-04-24T07:16:53.502Z,1003.87
2018-04-24T07:17:53.441Z,1003.83
2018-04-24T07:18:53.458Z,1003.85
2018-04-24T07:19:53.474Z,1003.85
2018-04-24T07:20:53.494Z,1003.87
2018-04-24T07:21:53.517Z,1003.87
2018-04-24T07:22:53.532Z,1003.82
2018-04-24T07:23:53.558Z,1003.77
2018-04-24T07:24:53.576Z,1003.83
2018-04-24T07:25:53.594Z,1003.76
2018-04-24T07:26:53.615Z,1003.79
2018-04-24T07:27:53.630Z,1003.76
2018-04-24T07:28:53.660Z,1003.76
2018-04-24T07:29:53.668Z,1003.78
2018-04-24T07:30:53.702Z,1003.75
2018-04-24T07:31:53.719Z,1003.76
2018-04-24T07:32:53.825Z,1003.74
2018-04-24T07:33:53.747Z,1003.73
2018-04-24T07:34:53.767Z,1003.71
2018-04-24T07:35:53.791Z,1003.66
2018-04-24T07:36:53.810Z,1003.7
2018-04-24T07:37:53.826Z,1003.7
2018-04-24T07:38:53.847Z,1003.71
2018-04-24T07:39:53.865Z,1003.69
2018-04-24T07:40:53.891Z,1003.71
2018-04-24T07:41:53.908Z,1003.73
2018-04-24T07:42:53.928Z,1003.72
2018-04-24T07:43:53.982Z,1003.72
2018-04-24T07:44:53.969Z,1003.8
2018-04-24T07:45:53.990Z,1003.8
2018-04-24T07:46:54.055Z,1003.79
2018-04-24T07:47:54.023Z,1003.79
2018-04-24T07:48:54.046Z,1003.78
2018-04-24T07:49:54.069Z,1003.76
2018-04-24T07:50:54.091Z,1003.76
2018-04-24T07:51:54.107Z,1003.73
2018-04-24T07:52:54.170Z,1003.7
2018-04-24T07:53:54.147Z,1003.68
2018-04-24T07:54:54.172Z,1003.8
2018-04-24T07:55:54.184Z,1003.77
2018-04-24T07:56:54.202Z,1003.77
2018-04-24T07:57:54.221Z,1003.81
2018-04-24T07:58:54.246Z,1003.69
2018-04-24T07:59:54.265Z,1003.74
2018-04-24T08:00:54.285Z,1003.68
2018-04-24T08:01:54.301Z,1003.77
2018-04-24T08:02:54.320Z,1003.71
2018-04-24T08:03:54.346Z,1003.74
2018-04-24T08:04:54.365Z,1003.75
2018-04-24T08:05:54.380Z,1003.75
2018-04-24T08:06:54.482Z,1003.72
2018-04-24T08:07:54.422Z,1003.73
2018-04-24T08:08:54.455Z,1003.76
2018-04-24T08:09:54.461Z,1003.7
2018-04-24T08:10:54.487Z,1003.71
2018-04-24T08:11:54.507Z,1003.75
2018-04-24T08:12:54.528Z,1003.7
2018-04-24T08:13:54.540Z,1003.79
2018-04-24T08:14:54.567Z,1003.71
2018-04-24T08:15:54.587Z,1003.72
2018-04-24T08:16:54.600Z,1003.72
2018-04-24T08:17:54.625Z,1003.72
2018-04-24T08:18:54.647Z,1003.82
2018-04-24T08:19:54.661Z,1003.8
2018-04-24T08:20:54.681Z,1003.79
2018-04-24T08:21:54.708Z,1003.78
2018-04-24T08:22:54.757Z,1003.8
2018-04-24T08:23:54.743Z,1003.82
2018-04-24T08:24:54.766Z,1003.82
2018-04-24T08:25:54.783Z,1003.84
2018-04-24T08:26:54.803Z,1003.84
2018-04-24T08:27:54.829Z,1003.84
2018-04-24T08:28:54.842Z,1003.85
2018-04-24T08:29:54.868Z,1003.86
2018-04-24T08:30:54.885Z,1003.81
2018-04-24T08:31:54.908Z,1003.83
2018-04-24T08:32:54.923Z,1003.78
2018-04-24T08:33:54.948Z,1003.82
2018-04-24T08:34:54.965Z,1003.84
2018-04-24T08:35:54.991Z,1003.82
2018-04-24T08:36:55.006Z,1003.85
2018-04-24T08:37:55.035Z,1003.85
2018-04-24T08:38:55.049Z,1003.86
2018-04-24T08:39:55.073Z,1003.7
2018-04-24T08:40:55.092Z,1003.74
2018-04-24T08:41:55.108Z,1003.82
2018-04-24T08:42:55.127Z,1003.78
2018-04-24T08:43:55.148Z,1003.79
2018-04-24T08:44:55.178Z,1003.79
2018-04-24T08:45:55.196Z,1003.74
2018-04-24T08:46:55.216Z,1003.78
2018-04-24T08:47:55.244Z,1003.74
2018-04-24T08:48:55.261Z,1003.75
2018-04-24T08:49:55.272Z,1003.76
2018-04-24T08:50:55.293Z,1003.73
2018-04-24T08:51:55.314Z,1003.73
2018-04-24T08:52:55.334Z,1003.69
2018-04-24T08:53:55.362Z,1003.62
2018-04-24T08:54:55.376Z,1003.74
2018-04-24T08:55:55.401Z,1003.71
2018-04-24T08:56:55.423Z,1003.61
2018-04-24T08:57:55.438Z,1003.67
2018-04-24T08:58:55.459Z,1003.65
2018-04-24T08:59:55.484Z,1003.64
2018-04-24T09:00:55.499Z,1003.68
2018-04-24T09:01:55.536Z,1003.73
2018-04-24T09:02:55.542Z,1003.71
2018-04-24T09:03:55.566Z,1003.68
2018-04-24T09:04:55.587Z,1003.69
2018-04-24T09:05:55.611Z,1003.66
2018-04-24T09:06:55.626Z,1003.73
2018-04-24T09:07:55.646Z,1003.7
2018-04-24T09:08:55.667Z,1003.77
2018-04-24T09:09:55.688Z,1003.72
2018-04-24T09:10:55.713Z,1003.8
2018-04-24T09:11:55.729Z,1003.74
2018-04-24T09:12:55.757Z,1003.71
2018-04-24T09:13:55.777Z,1003.7
2018-04-24T09:14:55.799Z,1003.71
2018-04-24T09:15:55.815Z,1003.71
2018-04-24T09:16:55.837Z,1003.7
2018-04-24T09:17:55.862Z,1003.66
2018-04-24T09:18:55.879Z,1003.61
2018-04-24T09:19:55.902Z,1003.74
2018-04-24T09:20:55.930Z,1003.72
2018-04-24T09:21:55.946Z,1003.77
2018-04-24T09:22:55.968Z,1003.7
2018-04-24T09:23:55.985Z,1003.59
2018-04-24T09:24:56.012Z,1003.67
2018-04-24T09:25:56.028Z,1003.7
2018-04-24T09:26:56.070Z,1003.64
2018-04-24T09:27:56.074Z,1003.63
2018-04-24T09:28:56.091Z,1003.69
2018-04-24T09:29:56.110Z,1003.54
2018-04-24T09:30:56.133Z,1003.6
2018-04-24T09:31:56.159Z,1003.57
2018-04-24T09:32:56.181Z,1003.56
2018-04-24T09:33:56.196Z,1003.52
2018-04-24T09:34:56.217Z,1003.53
2018-04-24T09:35:56.239Z,1003.52
2018-04-24T09:36:56.262Z,1003.52
2018-04-24T09:37:56.292Z,1003.63
2018-04-24T09:38:56.384Z,1003.65
2018-04-24T09:39:56.325Z,1003.7
2018-04-24T09:40:56.351Z,1003.68
2018-04-24T09:41:56.374Z,1003.69
2018-04-24T09:42:56.392Z,1003.61
2018-04-24T09:43:56.458Z,1003.74
2018-04-24T09:44:56.434Z,1003.75
2018-04-24T09:45:56.550Z,1003.76
2018-04-24T09:46:56.479Z,1003.73
2018-04-24T09:47:56.506Z,1003.77
2018-04-24T09:48:56.578Z,1003.75
2018-04-24T09:49:56.548Z,1003.73
2018-04-24T09:50:56.571Z,1003.67
2018-04-24T09:51:56.590Z,1003.66
2018-04-24T09:52:56.612Z,1003.64
2018-04-24T09:53:56.636Z,1003.7
2018-04-24T09:54:56.653Z,1003.69
2018-04-24T09:55:56.674Z,1003.61
2018-04-24T09:56:56.701Z,1003.64
2018-04-24T09:57:56.722Z,1003.58
2018-04-24T09:58:56.743Z,1003.67
2018-04-24T09:59:56.772Z,1003.63
2018-04-24T10:00:56.788Z,1003.68
2018-04-24T10:01:56.811Z,1003.65
2018-04-24T10:02:56.830Z,1003.66
2018-04-24T10:03:56.853Z,1003.64
2018-04-24T10:04:56.876Z,1003.71
2018-04-24T10:05:56.895Z,1003.69
2018-04-24T10:06:56.916Z,1003.75
2018-04-24T10:07:56.938Z,1003.63
2018-04-24T10:08:56.966Z,1003.71
2018-04-24T10:09:56.990Z,1003.71
2018-04-24T10:10:57.008Z,1003.64
2018-04-24T10:11:57.030Z,1003.71
2018-04-24T10:12:57.059Z,1003.64
2018-04-24T10:13:57.077Z,1003.68
2018-04-24T10:14:57.099Z,1003.65
2018-04-24T10:15:57.122Z,1003.64
2018-04-24T10:16:57.138Z,1003.68
2018-04-24T10:17:57.161Z,1003.65
2018-04-24T10:18:57.235Z,1003.7
2018-04-24T10:19:57.213Z,1003.73
2018-04-24T10:20:57.235Z,1003.67
2018-04-24T10:21:57.253Z,1003.7
2018-04-24T10:22:57.275Z,1003.65
2018-04-24T10:23:57.399Z,1003.7
2018-04-24T10:24:57.325Z,1003.64
2018-04-24T10:25:57.360Z,1003.64
2018-04-24T10:26:57.366Z,1003.66
2018-04-24T10:27:57.389Z,1003.65
2018-04-24T10:28:57.411Z,1003.65
2018-04-24T10:29:57.440Z,1003.68
2018-04-24T10:30:57.458Z,1003.69
2018-04-24T10:31:57.480Z,1003.64
2018-04-24T10:32:57.507Z,1003.67
2018-04-24T10:33:57.536Z,1003.64
2018-04-24T10:34:57.556Z,1003.71
2018-04-24T10:35:57.572Z,1003.7
2018-04-24T10:36:57.602Z,1003.57
2018-04-24T10:37:57.620Z,1003.56
2018-04-24T10:38:57.648Z,1003.54
2018-04-24T10:39:57.665Z,1003.54
2018-04-24T10:40:57.772Z,1003.51
2018-04-24T10:41:57.717Z,1003.43
2018-04-24T10:42:57.738Z,1003.42
2018-04-24T10:43:57.766Z,1003.39
2018-04-24T10:44:57.791Z,1003.36
2018-04-24T10:45:57.814Z,1003.26
2018-04-24T10:46:57.831Z,1003.24
2018-04-24T10:47:57.866Z,1003.23
2018-04-24T10:48:57.884Z,1003.19
2018-04-24T10:49:57.908Z,1003.18
2018-04-24T10:50:57.931Z,1003.2
2018-04-24T10:51:57.954Z,1003.27
2018-04-24T10:52:58.068Z,1003.32
2018-04-24T10:53:58.011Z,1003.25
2018-04-24T10:54:58.028Z,1003.31
2018-04-24T10:55:58.110Z,1003.43
2018-04-24T10:56:58.077Z,1003.35
2018-04-24T10:57:58.099Z,1003.33
2018-04-24T10:58:58.120Z,1003.38
2018-04-24T10:59:58.147Z,1003.4
2018-04-24T11:00:58.168Z,1003.44
2018-04-24T11:01:58.200Z,1003.37
2018-04-24T11:02:58.222Z,1003.33
2018-04-24T11:03:58.241Z,1003.33
2018-04-24T11:04:58.278Z,1003.27
2018-04-24T11:05:58.294Z,1003.27
2018-04-24T11:06:58.318Z,1003.33
2018-04-24T11:07:58.341Z,1003.39
2018-04-24T11:08:58.360Z,1003.28
2018-04-24T11:09:58.386Z,1003.38
2018-04-24T11:10:58.413Z,1003.39
2018-04-24T11:11:58.506Z,1003.29
2018-04-24T11:12:58.458Z,1003.41
2018-04-24T11:13:58.487Z,1003.31
2018-04-24T11:14:58.505Z,1003.34
2018-04-24T11:15:58.534Z,1003.4
2018-04-24T11:16:58.555Z,1003.45
2018-04-24T11:17:58.579Z,1003.36
2018-04-24T11:18:58.604Z,1003.44
2018-04-24T11:19:58.626Z,1003.48
2018-04-24T11:20:58.656Z,1003.42
2018-04-24T11:21:58.683Z,1003.49
2018-04-24T11:22:58.706Z,1003.46
2018-04-24T11:23:58.729Z,1003.42
2018-04-24T11:24:58.755Z,1003.47
2018-04-24T11:25:58.779Z,1003.44
2018-04-24T11:26:58.797Z,1003.47
2018-04-24T11:27:58.829Z,1003.43
2018-04-24T11:28:58.852Z,1003.54
2018-04-24T11:29:58.876Z,1003.55
2018-04-24T11:30:58.901Z,1003.5
2018-04-24T11:31:58.926Z,1003.51
2018-04-24T11:32:58.945Z,1003.55
2018-04-24T11:33:58.974Z,1003.54
2018-04-24T11:34:58.998Z,1003.53
2018-04-24T11:35:59.025Z,1003.52
2018-04-24T11:36:59.044Z,1003.48
2018-04-24T11:37:59.067Z,1003.49
2018-04-24T11:38:59.092Z,1003.47
2018-04-24T11:39:59.122Z,1003.46
2018-04-24T11:40:59.140Z,1003.47
2018-04-24T11:41:59.163Z,1003.43
2018-04-24T11:42:59.189Z,1003.38
2018-04-24T11:43:59.317Z,1003.46
2018-04-24T11:44:59.238Z,1003.45
2018-04-24T11:45:59.262Z,1003.39
2018-04-24T11:46:59.286Z,1003.43
2018-04-24T11:47:59.315Z,1003.43
2018-04-24T11:48:59.340Z,1003.45
2018-04-24T11:49:59.363Z,1003.43
2018-04-24T11:50:59.383Z,1003.43
2018-04-24T11:51:59.408Z,1003.42
2018-04-24T11:52:59.430Z,1003.46
2018-04-24T11:53:59.459Z,1003.45
2018-04-24T11:54:59.479Z,1003.45
2018-04-24T11:55:59.509Z,1003.49
2018-04-24T11:56:59.530Z,1003.45
2018-04-24T11:57:59.559Z,1003.43
2018-04-24T11:58:59.576Z,1003.49
2018-04-24T11:59:59.598Z,1003.48
2018-04-24T12:00:59.628Z,1003.46
2018-04-24T12:01:59.649Z,1003.46
2018-04-24T12:02:59.676Z,1003.44
2018-04-24T12:03:59.698Z,1003.47
2018-04-24T12:04:59.723Z,1003.48
2018-04-24T12:05:59.744Z,1003.46
2018-04-24T12:06:59.777Z,1003.42
2018-04-24T12:07:59.796Z,1003.47
2018-04-24T12:08:59.821Z,1003.48